Time,TemperatureF,DewpointF,PressureIn,WindDirection,WindDirectionDegrees,WindSpeedMPH,WindSpeedGustMPH,Humidity,HourlyPrecipIn,Conditions,Clouds,dailyrainin,SolarRadiationWatts/m^2,SoftwareType,DateUTC
2013-06-02 00:04:00,67.4,65.0,29.98,WSW,249,1.0,7.0,91,0.00,,,0.00,0,weatherlink.com 1.10,2013-06-02 04:04:00,
2013-06-02 00:19:00,67.2,65.0,29.98,West,266,0.0,5.0,91,0.00,,,0.00,0,weatherlink.com 1.10,2013-06-02 04:19:00,
2013-06-02 00:34:00,67.2,65.0,29.98,West,264,0.0,6.0,91,0.00,,,0.00,0,weatherlink.com 1.10,2013-06-02 04:34:00,
2013-06-02 00:49:00,67.0,64.0,29.97,WSW,245,1.0,7.0,91,0.00,,,0.00,0,weatherlink.com 1.10,2013-06-02 04:49:00,
2013-06-02 01:04:00,66.9,64.0,29.96,NW,316,3.0,5.0,91,0.00,,,0.00,0,weatherlink.com 1.10,2013-06-02 05:04:00,
2013-06-02 01:19:00,66.9,64.0,29.96,SSW,196,2.0,9.0,91,0.00,,,0.00,0,weatherlink.com 1.10,2013-06-02 05:19:00,
2013-06-02 01:34:00,66.9,64.0,29.96,WSW,241,2.0,8.0,91,0.00,,,0.00,0,weatherlink.com 1.10,2013-06-02 05:34:00,
2013-06-02 01:49:00,66.9,64.0,29.95,West,263,2.0,10.0,90,0.00,,,0.00,0,weatherlink.com 1.10,2013-06-02 05:49:00,
2013-06-02 02:04:00,66.8,64.0,29.95,WNW,288,2.0,8.0,90,0.00,,,0.00,0,weatherlink.com 1.10,2013-06-02 06:04:00,
2013-06-02 02:19:00,66.7,64.0,29.95,West,262,3.0,7.0,90,0.00,,,0.00,0,weatherlink.com 1.10,2013-06-02 06:19:00,
2013-06-02 02:34:00,66.7,64.0,29.95,WSW,257,2.0,8.0,90,0.00,,,0.00,0,weatherlink.com 1.10,2013-06-02 06:34:00,
2013-06-02 02:49:00,66.5,64.0,29.94,SW,233,3.0,4.0,90,0.00,,,0.00,0,weatherlink.com 1.10,2013-06-02 06:49:00,
2013-06-02 03:04:00,66.4,64.0,29.94,SW,227,0.0,6.0,91,0.00,,,0.00,0,weatherlink.com 1.10,2013-06-02 07:04:00,
2013-06-02 03:19:00,66.3,64.0,29.94,WNW,290,1.0,6.0,91,0.00,,,0.00,0,weatherlink.com 1.10,2013-06-02 07:19:00,
2013-06-02 03:34:00,66.1,64.0,29.94,WSW,254,2.0,6.0,91,0.00,,,0.00,0,weatherlink.com 1.10,2013-06-02 07:34:00,
2013-06-02 03:49:00,65.9,64.0,29.94,WSW,254,2.0,7.0,92,0.00,,,0.00,0,weatherlink.com 1.10,2013-06-02 07:49:00,
2013-06-02 04:04:00,65.7,63.0,29.94,WNW,296,1.0,3.0,92,0.00,,,0.00,0,weatherlink.com 1.10,2013-06-02 08:04:00,
2013-06-02 04:19:00,65.4,63.0,29.94,West,270,3.0,3.0,92,0.00,,,0.00,0,weatherlink.com 1.10,2013-06-02 08:19:00,
2013-06-02 04:34:00,65.1,63.0,29.94,West,271,2.0,4.0,93,0.00,,,0.00,0,weatherlink.com 1.10,2013-06-02 08:34:00,
2013-06-02 04:49:00,64.7,63.0,29.94,West,273,0.0,3.0,93,0.00,,,0.00,0,weatherlink.com 1.10,2013-06-02 08:49:00,
2013-06-02 05:04:00,64.4,62.0,29.94,West,267,0.0,3.0,93,0.00,,,0.00,0,weatherlink.com 1.10,2013-06-02 09:04:00,
2013-06-02 05:19:00,64.1,62.0,29.94,West,270,0.0,2.0,94,0.00,,,0.00,0,weatherlink.com 1.10,2013-06-02 09:19:00,
2013-06-02 05:34:00,63.9,62.0,29.94,West,266,0.0,3.0,94,0.00,,,0.00,5,weatherlink.com 1.10,2013-06-02 09:34:00,
2013-06-02 05:49:00,63.9,63.0,29.95,West,276,1.0,3.0,95,0.00,,,0.00,9,weatherlink.com 1.10,2013-06-02 09:49:00,
2013-06-02 06:04:00,63.9,63.0,29.95,WSW,239,0.0,3.0,95,0.00,,,0.00,14,weatherlink.com 1.10,2013-06-02 10:04:00,
2013-06-02 06:19:00,64.1,63.0,29.95,SW,236,1.0,4.0,95,0.00,,,0.00,18,weatherlink.com 1.10,2013-06-02 10:19:00,
2013-06-02 06:34:00,64.4,63.0,29.95,WNW,286,1.0,6.0,96,0.00,,,0.00,21,weatherlink.com 1.10,2013-06-02 10:34:00,
2013-06-02 06:49:00,64.8,63.0,29.94,West,259,3.0,4.0,95,0.00,,,0.00,26,weatherlink.com 1.10,2013-06-02 10:49:00,
2013-06-02 07:04:00,65.2,64.0,29.94,West,277,2.0,4.0,95,0.00,,,0.00,28,weatherlink.com 1.10,2013-06-02 11:04:00,
2013-06-02 07:19:00,65.9,65.0,29.94,North,355,0.0,5.0,95,0.00,,,0.00,30,weatherlink.com 1.10,2013-06-02 11:19:00,
2013-06-02 07:34:00,66.7,65.0,29.94,West,275,1.0,6.0,94,0.00,,,0.00,35,weatherlink.com 1.10,2013-06-02 11:34:00,
2013-06-02 07:49:00,67.9,66.0,29.93,WSW,246,1.0,5.0,93,0.00,,,0.00,37,weatherlink.com 1.10,2013-06-02 11:49:00,
2013-06-02 08:04:00,69.3,67.0,29.93,SW,219,2.0,4.0,91,0.00,,,0.00,40,weatherlink.com 1.10,2013-06-02 12:04:00,
2013-06-02 08:19:00,70.7,67.0,29.93,WSW,239,1.0,8.0,89,0.00,,,0.00,42,weatherlink.com 1.10,2013-06-02 12:19:00,
2013-06-02 08:34:00,72.2,68.0,29.93,WSW,254,2.0,8.0,87,0.00,,,0.00,47,weatherlink.com 1.10,2013-06-02 12:34:00,
2013-06-02 08:50:00,73.6,69.0,29.93,North,360,0.0,6.0,85,0.00,,,0.00,51,weatherlink.com 1.10,2013-06-02 12:50:00,
2013-06-02 09:05:00,74.8,69.0,29.93,West,262,2.0,9.0,82,0.00,,,0.00,54,weatherlink.com 1.10,2013-06-02 13:05:00,
2013-06-02 09:20:00,75.6,69.0,29.92,WSW,244,5.0,8.0,80,0.00,,,0.00,60,weatherlink.com 1.10,2013-06-02 13:20:00,
2013-06-02 09:35:00,76.9,70.0,29.92,NNW,344,2.0,7.0,79,0.00,,,0.00,81,weatherlink.com 1.10,2013-06-02 13:35:00,
2013-06-02 09:50:00,78.3,70.0,29.92,WNW,302,3.0,7.0,75,0.00,,,0.00,664,weatherlink.com 1.10,2013-06-02 13:50:00,
2013-06-02 10:05:00,79.2,70.0,29.92,SW,215,1.0,14.0,74,0.00,,,0.00,710,weatherlink.com 1.10,2013-06-02 14:05:00,
2013-06-02 10:20:00,79.8,70.0,29.91,WNW,295,1.0,13.0,72,0.00,,,0.00,756,weatherlink.com 1.10,2013-06-02 14:20:00,
2013-06-02 10:35:00,81.1,71.0,29.91,West,260,4.0,9.0,72,0.00,,,0.00,793,weatherlink.com 1.10,2013-06-02 14:35:00,
2013-06-02 10:50:00,81.3,71.0,29.91,West,281,0.0,12.0,70,0.00,,,0.00,831,weatherlink.com 1.10,2013-06-02 14:50:00,
2013-06-02 11:05:00,82.3,72.0,29.91,WNW,294,2.0,8.0,70,0.00,,,0.00,863,weatherlink.com 1.10,2013-06-02 15:05:00,
2013-06-02 11:20:00,83.3,70.0,29.91,WNW,287,2.0,14.0,65,0.00,,,0.00,889,weatherlink.com 1.10,2013-06-02 15:20:00,
2013-06-02 11:35:00,83.3,72.0,29.91,SE,136,0.0,10.0,69,0.00,,,0.00,925,weatherlink.com 1.10,2013-06-02 15:35:00,
2013-06-02 11:50:00,84.4,72.0,29.90,WNW,285,0.0,7.0,67,0.00,,,0.00,942,weatherlink.com 1.10,2013-06-02 15:50:00,
2013-06-02 12:05:00,85.1,73.0,29.90,NE,46,3.0,7.0,67,0.00,,,0.00,967,weatherlink.com 1.10,2013-06-02 16:05:00,
2013-06-02 12:20:00,85.9,71.0,29.90,SSE,168,1.0,11.0,62,0.00,,,0.00,981,weatherlink.com 1.10,2013-06-02 16:20:00,
2013-06-02 12:35:00,85.7,73.0,29.90,NW,305,3.0,6.0,65,0.00,,,0.00,986,weatherlink.com 1.10,2013-06-02 16:35:00,
2013-06-02 12:50:00,86.1,72.0,29.90,ESE,109,2.0,9.0,62,0.00,,,0.00,997,weatherlink.com 1.10,2013-06-02 16:50:00,
2013-06-02 13:05:00,86.2,73.0,29.89,SW,221,1.0,7.0,64,0.00,,,0.00,1000,weatherlink.com 1.10,2013-06-02 17:05:00,
2013-06-02 13:20:00,86.0,72.0,29.89,WNW,288,6.0,7.0,63,0.00,,,0.00,993,weatherlink.com 1.10,2013-06-02 17:20:00,
2013-06-02 13:35:00,86.3,73.0,29.89,West,264,1.0,7.0,64,0.00,,,0.00,986,weatherlink.com 1.10,2013-06-02 17:35:00,
2013-06-02 13:50:00,86.0,72.0,29.88,ENE,65,2.0,7.0,64,0.00,,,0.00,977,weatherlink.com 1.10,2013-06-02 17:50:00,
2013-06-02 14:05:00,85.7,72.0,29.88,NE,42,1.0,8.0,64,0.00,,,0.00,958,weatherlink.com 1.10,2013-06-02 18:05:00,
2013-06-02 14:21:00,84.9,72.0,29.88,SW,220,1.0,12.0,65,0.00,,,0.00,937,weatherlink.com 1.10,2013-06-02 18:21:00,
2013-06-02 14:36:00,84.6,70.0,29.87,East,86,1.0,8.0,62,0.00,,,0.00,911,weatherlink.com 1.10,2013-06-02 18:36:00,
2013-06-02 14:51:00,84.9,71.0,29.87,WSW,258,3.0,5.0,64,0.00,,,0.00,881,weatherlink.com 1.10,2013-06-02 18:51:00,
2013-06-02 15:06:00,84.1,70.0,29.87,SW,236,1.0,6.0,62,0.00,,,0.00,847,weatherlink.com 1.10,2013-06-02 19:06:00,
2013-06-02 15:21:00,83.9,70.0,29.87,SSW,193,4.0,7.0,64,0.00,,,0.00,805,weatherlink.com 1.10,2013-06-02 19:21:00,
2013-06-02 15:36:00,82.9,69.0,29.87,West,281,4.0,8.0,64,0.00,,,0.00,761,weatherlink.com 1.10,2013-06-02 19:36:00,
2013-06-02 15:51:00,82.2,69.0,29.87,ENE,78,0.0,7.0,65,0.00,,,0.00,717,weatherlink.com 1.10,2013-06-02 19:51:00,
2013-06-02 16:06:00,82.1,70.0,29.87,NW,320,1.0,7.0,66,0.00,,,0.00,663,weatherlink.com 1.10,2013-06-02 20:06:00,
2013-06-02 16:21:00,81.9,69.0,29.87,WSW,242,3.0,7.0,65,0.00,,,0.00,603,weatherlink.com 1.10,2013-06-02 20:21:00,
2013-06-02 16:36:00,81.6,69.0,29.86,WSW,258,2.0,6.0,66,0.00,,,0.00,415,weatherlink.com 1.10,2013-06-02 20:36:00,
2013-06-02 16:51:00,81.0,69.0,29.85,SW,228,1.0,7.0,67,0.00,,,0.00,359,weatherlink.com 1.10,2013-06-02 20:51:00,
2013-06-02 17:06:00,79.8,68.0,29.86,SW,232,8.0,8.0,68,0.00,,,0.00,292,weatherlink.com 1.10,2013-06-02 21:06:00,
2013-06-02 17:21:00,77.9,67.0,29.86,West,270,0.0,6.0,70,0.00,,,0.00,323,weatherlink.com 1.10,2013-06-02 21:21:00,
2013-06-02 17:36:00,77.1,67.0,29.85,WNW,286,1.0,11.0,70,0.00,,,0.00,251,weatherlink.com 1.10,2013-06-02 21:36:00,
2013-06-02 17:51:00,75.9,67.0,29.85,West,270,1.0,7.0,73,0.00,,,0.00,114,weatherlink.com 1.10,2013-06-02 21:51:00,
2013-06-02 18:06:00,74.4,66.0,29.85,WNW,284,3.0,10.0,75,0.00,,,0.00,72,weatherlink.com 1.10,2013-06-02 22:06:00,
2013-06-02 18:21:00,73.1,65.0,29.86,South,177,0.0,6.0,76,0.00,,,0.00,53,weatherlink.com 1.10,2013-06-02 22:21:00,
2013-06-02 18:36:00,72.1,65.0,29.86,South,190,5.0,7.0,78,0.00,,,0.00,44,weatherlink.com 1.10,2013-06-02 22:36:00,
2013-06-02 18:51:00,71.5,65.0,29.86,West,277,7.0,8.0,79,0.00,,,0.00,40,weatherlink.com 1.10,2013-06-02 22:51:00,
2013-06-02 19:06:00,71.2,65.0,29.86,West,273,2.0,8.0,80,0.00,,,0.00,33,weatherlink.com 1.10,2013-06-02 23:06:00,
2013-06-02 19:21:00,70.9,64.0,29.87,West,263,2.0,9.0,80,0.00,,,0.00,25,weatherlink.com 1.10,2013-06-02 23:21:00,
2013-06-02 19:36:00,70.1,64.0,29.87,NW,306,2.0,10.0,81,0.00,,,0.00,12,weatherlink.com 1.10,2013-06-02 23:36:00,
2013-06-02 19:51:00,69.5,64.0,29.87,West,270,1.0,10.0,82,0.00,,,0.00,9,weatherlink.com 1.10,2013-06-02 23:51:00,
2013-06-02 20:06:00,68.9,64.0,29.87,SW,232,2.0,8.0,84,0.00,,,0.00,0,weatherlink.com 1.10,2013-06-03 00:06:00,
2013-06-02 20:21:00,68.3,64.0,29.87,West,264,2.0,7.0,85,0.00,,,0.00,0,weatherlink.com 1.10,2013-06-03 00:21:00,
2013-06-02 20:36:00,67.8,64.0,29.86,SW,236,1.0,10.0,86,0.00,,,0.00,0,weatherlink.com 1.10,2013-06-03 00:36:00,
2013-06-02 20:51:00,67.5,64.0,29.88,WSW,250,2.0,7.0,87,0.00,,,0.00,0,weatherlink.com 1.10,2013-06-03 00:51:00,
2013-06-02 21:06:00,67.3,64.0,29.88,West,269,2.0,8.0,88,0.00,,,0.00,0,weatherlink.com 1.10,2013-06-03 01:06:00,
2013-06-02 21:21:00,67.2,64.0,29.88,West,263,1.0,8.0,88,0.00,,,0.00,0,weatherlink.com 1.10,2013-06-03 01:21:00,
2013-06-02 21:36:00,67.1,64.0,29.88,SW,221,5.0,9.0,88,0.00,,,0.00,0,weatherlink.com 1.10,2013-06-03 01:36:00,
2013-06-02 21:51:00,67.0,63.0,29.88,WSW,253,2.0,11.0,88,0.00,,,0.00,0,weatherlink.com 1.10,2013-06-03 01:51:00,
2013-06-02 22:06:00,66.8,64.0,29.88,SW,224,0.0,7.0,89,0.00,,,0.00,0,weatherlink.com 1.10,2013-06-03 02:06:00,
2013-06-02 22:21:00,66.7,63.0,29.88,West,277,1.0,6.0,89,0.00,,,0.00,0,weatherlink.com 1.10,2013-06-03 02:21:00,
2013-06-02 22:36:00,66.5,64.0,29.88,NNE,26,1.0,6.0,90,0.00,,,0.00,0,weatherlink.com 1.10,2013-06-03 02:36:00,
2013-06-02 22:51:00,66.3,63.0,29.88,West,275,2.0,5.0,90,0.00,,,0.00,0,weatherlink.com 1.10,2013-06-03 02:51:00,
2013-06-02 23:06:00,66.2,63.0,29.88,South,178,0.0,8.0,90,0.00,,,0.00,0,weatherlink.com 1.10,2013-06-03 03:06:00,
2013-06-02 23:21:00,66.1,63.0,29.88,WNW,293,2.0,7.0,90,0.00,,,0.00,0,weatherlink.com 1.10,2013-06-03 03:21:00,
2013-06-02 23:36:00,66.2,63.0,29.87,WNW,296,1.0,6.0,90,0.00,,,0.00,0,weatherlink.com 1.10,2013-06-03 03:36:00,
2013-06-02 23:51:00,66.2,64.0,29.88,WSW,247,2.0,7.0,91,0.00,,,0.00,0,weatherlink.com 1.10,2013-06-03 03:51:00,